createdAt,value
2019-05-11T00:00:22.580Z,10.35
2019-05-11T00:01:22.743Z,10.39
2019-05-11T00:02:22.543Z,10.42
2019-05-11T00:03:22.529Z,10.39
2019-05-11T00:04:22.514Z,10.46
2019-05-11T00:05:22.517Z,10.36
2019-05-11T00:06:22.492Z,10.31
2019-05-11T00:07:22.522Z,10.42
2019-05-11T00:08:22.472Z,10.35
2019-05-11T00:09:22.457Z,10.28
2019-05-11T00:10:23.614Z,10.27
2019-05-11T00:11:22.453Z,10.34
2019-05-11T00:12:22.425Z,10.36
2019-05-11T00:13:22.458Z,10.31
2019-05-11T00:14:22.415Z,10.23
2019-05-11T00:15:22.394Z,10.23
2019-05-11T00:16:22.384Z,10.30
2019-05-11T00:17:22.401Z,10.23
2019-05-11T00:18:22.358Z,10.20
2019-05-11T00:19:22.429Z,10.27
2019-05-11T00:20:22.336Z,10.31
2019-05-11T00:21:22.329Z,10.31
2019-05-11T00:22:22.317Z,10.30
2019-05-11T00:23:22.321Z,10.27
2019-05-11T00:24:22.296Z,10.18
2019-05-11T00:25:22.316Z,10.21
2019-05-11T00:26:22.270Z,10.20
2019-05-11T00:27:22.263Z,10.23
2019-05-11T00:28:22.250Z,10.21
2019-05-11T00:29:22.252Z,10.21
2019-05-11T00:30:22.228Z,10.26
2019-05-11T00:31:22.248Z,10.10
2019-05-11T00:32:22.927Z,10.23
2019-05-11T00:33:22.203Z,10.08
2019-05-11T00:34:22.184Z,10.12
2019-05-11T00:35:22.201Z,10.12
2019-05-11T00:36:22.159Z,10.06
2019-05-11T00:37:22.189Z,10.16
2019-05-11T00:38:22.147Z,9.99
2019-05-11T00:39:22.133Z,10.03
2019-05-11T00:40:22.121Z,10.02
2019-05-11T00:41:22.117Z,10.01
2019-05-11T00:42:22.094Z,9.98
2019-05-11T00:43:22.116Z,9.98
2019-05-11T00:44:22.074Z,9.98
2019-05-11T00:45:22.062Z,10.03
2019-05-11T00:46:22.053Z,10.01
2019-05-11T00:47:22.060Z,9.94
2019-05-11T00:48:22.030Z,9.98
2019-05-11T00:49:22.049Z,10.03
2019-05-11T00:50:36.817Z,10.03
2019-05-11T00:51:22.996Z,10.03
2019-05-11T00:52:22.007Z,9.94
2019-05-11T00:53:21.972Z,9.94
2019-05-11T00:54:21.965Z,10.01
2019-05-11T00:55:22.008Z,9.99
2019-05-11T00:56:21.941Z,10.05
2019-05-11T00:57:21.955Z,9.98
2019-05-11T00:58:21.939Z,9.98
2019-05-11T00:59:22.226Z,10.05
2019-05-11T01:00:21.912Z,10.01
2019-05-11T01:01:21.936Z,9.98
2019-05-11T01:02:21.877Z,10.01
2019-05-11T01:03:21.868Z,10.05
2019-05-11T01:04:21.895Z,10.02
2019-05-11T01:05:21.862Z,10.09
2019-05-11T01:06:21.836Z,10.03
2019-05-11T01:07:21.869Z,9.99
2019-05-11T01:08:21.818Z,10.03
2019-05-11T01:09:21.813Z,9.98
2019-05-11T01:10:28.943Z,9.98
2019-05-11T01:11:22.779Z,10.06
2019-05-11T01:12:21.765Z,10.01
2019-05-11T01:13:21.805Z,10.01
2019-05-11T01:14:21.743Z,10.01
2019-05-11T01:15:21.730Z,10.05
2019-05-11T01:16:21.730Z,9.96
2019-05-11T01:17:21.708Z,9.93
2019-05-11T01:18:21.700Z,9.93
2019-05-11T01:19:21.989Z,9.96
2019-05-11T01:20:21.679Z,10.02
2019-05-11T01:21:21.668Z,9.84
2019-05-11T01:22:21.665Z,9.93
2019-05-11T01:23:21.643Z,9.94
2019-05-11T01:24:21.635Z,9.90
2019-05-11T01:25:21.659Z,9.84
2019-05-11T01:26:21.613Z,9.88
2019-05-11T01:27:21.602Z,9.88
2019-05-11T01:28:21.611Z,9.90
2019-05-11T01:29:21.579Z,9.90
2019-05-11T01:30:21.567Z,9.87
2019-05-11T01:31:21.619Z,9.84
2019-05-11T01:32:21.543Z,9.90
2019-05-11T01:33:21.535Z,9.90
2019-05-11T01:34:21.538Z,9.85
2019-05-11T01:35:21.511Z,9.84
2019-05-11T01:36:21.509Z,9.88
2019-05-11T01:37:21.538Z,9.81
2019-05-11T01:38:21.484Z,9.78
2019-05-11T01:39:21.477Z,9.80
2019-05-11T01:40:21.472Z,9.81
2019-05-11T01:41:21.450Z,9.77
2019-05-11T01:42:21.436Z,9.77
2019-05-11T01:43:21.468Z,9.83
2019-05-11T01:44:21.412Z,9.77
2019-05-11T01:45:21.403Z,9.80
2019-05-11T01:46:21.404Z,9.78
2019-05-11T01:47:21.384Z,9.77
2019-05-11T01:48:21.369Z,9.73
2019-05-11T01:49:21.508Z,9.75
2019-05-11T01:50:21.348Z,9.67
2019-05-11T01:51:21.334Z,9.77
2019-05-11T01:52:21.348Z,9.69
2019-05-11T01:53:21.313Z,9.67
2019-05-11T01:54:21.309Z,9.66
2019-05-11T01:55:21.320Z,9.67
2019-05-11T01:56:21.284Z,9.55
2019-05-11T01:57:21.269Z,9.59
2019-05-11T01:58:21.280Z,9.69
2019-05-11T01:59:21.250Z,9.66
2019-05-11T02:00:21.238Z,9.66
2019-05-11T02:01:21.275Z,9.78
2019-05-11T02:02:21.214Z,9.73
2019-05-11T02:03:21.205Z,9.80
2019-05-11T02:04:21.207Z,9.77
2019-05-11T02:05:21.186Z,9.81
2019-05-11T02:06:21.172Z,9.85
2019-05-11T02:07:21.218Z,9.87
2019-05-11T02:08:21.153Z,9.72
2019-05-11T02:09:21.138Z,9.80
2019-05-11T02:10:21.147Z,9.87
2019-05-11T02:11:21.124Z,9.81
2019-05-11T02:12:21.109Z,9.80
2019-05-11T02:13:21.128Z,9.77
2019-05-11T02:14:21.087Z,9.83
2019-05-11T02:15:21.077Z,9.80
2019-05-11T02:16:21.081Z,9.81
2019-05-11T02:17:21.058Z,9.88
2019-05-11T02:18:21.051Z,9.85
2019-05-11T02:19:21.088Z,9.81
2019-05-11T02:20:21.021Z,9.78
2019-05-11T02:21:21.014Z,9.83
2019-05-11T02:22:21.019Z,9.88
2019-05-11T02:23:20.997Z,9.78
2019-05-11T02:24:20.976Z,9.81
2019-05-11T02:25:20.995Z,9.75
2019-05-11T02:26:20.955Z,9.67
2019-05-11T02:27:20.954Z,9.77
2019-05-11T02:28:20.953Z,9.73
2019-05-11T02:29:20.920Z,9.73
2019-05-11T02:30:20.911Z,9.77
2019-05-11T02:31:20.949Z,9.80
2019-05-11T02:32:20.885Z,9.73
2019-05-11T02:33:20.884Z,9.70
2019-05-11T02:34:20.900Z,9.67
2019-05-11T02:35:20.865Z,9.66
2019-05-11T02:36:20.843Z,9.65
2019-05-11T02:37:21.043Z,9.63
2019-05-11T02:38:20.820Z,9.66
2019-05-11T02:39:20.829Z,9.66
2019-05-11T02:40:20.799Z,9.69
2019-05-11T02:41:35.433Z,9.66
2019-05-11T02:42:21.820Z,9.57
2019-05-11T02:43:20.766Z,9.60
2019-05-11T02:44:20.759Z,9.60
2019-05-11T02:45:20.764Z,9.63
2019-05-11T02:46:20.734Z,9.52
2019-05-11T02:47:20.731Z,9.57
2019-05-11T02:48:20.757Z,9.62
2019-05-11T02:49:20.703Z,9.57
2019-05-11T02:50:20.688Z,9.57
2019-05-11T02:51:20.711Z,9.52
2019-05-11T02:52:20.665Z,9.55
2019-05-11T02:53:20.655Z,9.62
2019-05-11T02:54:20.700Z,9.52
2019-05-11T02:55:20.633Z,9.47
2019-05-11T02:56:20.629Z,9.42
2019-05-11T02:57:20.641Z,9.50
2019-05-11T02:58:20.617Z,9.40
2019-05-11T02:59:20.589Z,9.37
2019-05-11T03:00:20.614Z,9.45
2019-05-11T03:01:20.567Z,9.40
2019-05-11T03:02:20.557Z,9.32
2019-05-11T03:03:20.570Z,9.29
2019-05-11T03:04:20.535Z,9.26
2019-05-11T03:05:20.584Z,9.30
2019-05-11T03:06:20.584Z,9.23
2019-05-11T03:07:20.511Z,9.24
2019-05-11T03:08:20.494Z,9.27
2019-05-11T03:09:20.514Z,9.29
2019-05-11T03:10:20.479Z,9.27
2019-05-11T03:11:20.458Z,9.18
2019-05-11T03:12:20.484Z,9.15
2019-05-11T03:13:20.433Z,9.18
2019-05-11T03:14:20.428Z,9.18
2019-05-11T03:15:20.435Z,9.12
2019-05-11T03:16:20.403Z,9.12
2019-05-11T03:17:20.398Z,9.14
2019-05-11T03:18:20.430Z,9.16
2019-05-11T03:19:20.370Z,9.18
2019-05-11T03:20:20.363Z,9.12
2019-05-11T03:21:20.368Z,9.14
2019-05-11T03:22:20.348Z,9.12
2019-05-11T03:23:20.329Z,9.16
2019-05-11T03:24:24.010Z,9.09
2019-05-11T03:25:20.307Z,9.14
2019-05-11T03:26:20.295Z,9.14
2019-05-11T03:27:20.309Z,9.12
2019-05-11T03:28:20.273Z,9.12
2019-05-11T03:29:20.262Z,9.08
2019-05-11T03:30:20.308Z,9.09
2019-05-11T03:31:20.240Z,9.14
2019-05-11T03:32:20.227Z,9.19
2019-05-11T03:33:20.239Z,9.15
2019-05-11T03:34:20.210Z,9.16
2019-05-11T03:35:20.197Z,9.14
2019-05-11T03:36:20.230Z,9.14
2019-05-11T03:37:20.177Z,9.16
2019-05-11T03:38:20.163Z,9.08
2019-05-11T03:39:20.195Z,9.08
2019-05-11T03:40:20.142Z,9.08
2019-05-11T03:41:20.131Z,9.09
2019-05-11T03:42:20.365Z,9.12
2019-05-11T03:43:20.107Z,9.04
2019-05-11T03:44:20.095Z,8.92
2019-05-11T03:45:20.099Z,9.06
2019-05-11T03:46:20.082Z,9.06
2019-05-11T03:47:20.069Z,9.04
2019-05-11T03:48:20.097Z,9.03
2019-05-11T03:49:20.044Z,9.04
2019-05-11T03:50:20.030Z,8.96
2019-05-11T03:51:20.048Z,9.01
2019-05-11T03:52:20.008Z,8.98
2019-05-11T03:53:20.002Z,8.96
2019-05-11T03:54:20.032Z,8.95
2019-05-11T03:55:19.980Z,8.95
2019-05-11T03:56:19.966Z,9.01
2019-05-11T03:57:19.984Z,8.98
2019-05-11T03:58:19.944Z,8.93
2019-05-11T03:59:19.932Z,8.96
2019-05-11T04:00:19.957Z,9.01
2019-05-11T04:01:19.909Z,8.95
2019-05-11T04:02:19.897Z,8.93
2019-05-11T04:03:19.913Z,8.98
2019-05-11T04:04:19.882Z,9.06
2019-05-11T04:05:19.869Z,9.08
2019-05-11T04:06:19.907Z,9.11
2019-05-11T04:07:19.843Z,9.06
2019-05-11T04:08:19.837Z,9.04
2019-05-11T04:09:19.848Z,9.15
2019-05-11T04:10:19.813Z,9.06
2019-05-11T04:11:19.799Z,9.15
2019-05-11T04:12:34.105Z,9.04
2019-05-11T04:13:20.786Z,9.08
2019-05-11T04:14:19.769Z,9.06
2019-05-11T04:15:19.776Z,9.11
2019-05-11T04:16:19.751Z,9.08
2019-05-11T04:17:19.735Z,9.09
2019-05-11T04:18:19.766Z,9.06
2019-05-11T04:19:19.723Z,9.09
2019-05-11T04:20:19.718Z,9.08
2019-05-11T04:21:19.709Z,9.06
2019-05-11T04:22:19.683Z,9.08
2019-05-11T04:23:19.671Z,9.09
2019-05-11T04:24:19.825Z,8.92
2019-05-11T04:25:19.650Z,8.92
2019-05-11T04:26:19.685Z,9.06
2019-05-11T04:27:19.858Z,8.99
2019-05-11T04:28:19.614Z,9.03
2019-05-11T04:29:19.602Z,8.99
2019-05-11T04:30:19.633Z,8.99
2019-05-11T04:31:19.579Z,8.99
2019-05-11T04:32:19.567Z,8.99
2019-05-11T04:33:19.582Z,8.93
2019-05-11T04:34:19.551Z,8.90
2019-05-11T04:35:19.541Z,8.95
2019-05-11T04:36:19.558Z,9.03
2019-05-11T04:37:19.516Z,8.98
2019-05-11T04:38:19.504Z,8.99
2019-05-11T04:39:19.505Z,8.99
2019-05-11T04:40:19.498Z,8.95
2019-05-11T04:41:19.470Z,9.01
2019-05-11T04:42:19.512Z,8.98
2019-05-11T04:43:19.450Z,8.98
2019-05-11T04:44:19.450Z,8.95
2019-05-11T04:45:19.441Z,8.96
2019-05-11T04:46:19.423Z,8.96
2019-05-11T04:47:19.442Z,8.92
2019-05-11T04:48:19.422Z,8.95
2019-05-11T04:49:19.383Z,8.95
2019-05-11T04:50:19.372Z,8.95
2019-05-11T04:51:19.383Z,8.95
2019-05-11T04:52:19.355Z,8.92
2019-05-11T04:53:19.338Z,8.93
2019-05-11T04:54:19.380Z,8.98
2019-05-11T04:55:19.319Z,8.95
2019-05-11T04:56:19.306Z,8.96
2019-05-11T04:57:19.356Z,8.95
2019-05-11T04:58:19.285Z,8.99
2019-05-11T04:59:19.273Z,8.83
2019-05-11T05:00:19.325Z,8.92
2019-05-11T05:01:19.254Z,8.93
2019-05-11T05:02:19.244Z,8.88
2019-05-11T05:03:19.252Z,8.93
2019-05-11T05:04:19.229Z,8.95
2019-05-11T05:05:19.222Z,8.93
2019-05-11T05:06:24.374Z,8.93
2019-05-11T05:07:20.190Z,8.95
2019-05-11T05:08:21.191Z,8.92
2019-05-11T05:09:20.300Z,8.98
2019-05-11T05:10:20.265Z,8.89
2019-05-11T05:11:19.143Z,8.96
2019-05-11T05:12:19.230Z,8.89
2019-05-11T05:13:23.243Z,8.95
2019-05-11T05:14:20.106Z,8.88
2019-05-11T05:15:19.119Z,8.88
2019-05-11T05:16:19.088Z,8.95
2019-05-11T05:17:19.078Z,8.93
2019-05-11T05:18:19.115Z,8.86
2019-05-11T05:19:19.055Z,8.88
2019-05-11T05:20:19.047Z,8.83
2019-05-11T05:21:19.046Z,8.93
2019-05-11T05:22:19.028Z,8.96
2019-05-11T05:23:19.014Z,8.95
2019-05-11T05:24:19.039Z,8.93
2019-05-11T05:25:18.988Z,8.96
2019-05-11T05:26:18.997Z,8.96
2019-05-11T05:27:18.973Z,9.01
2019-05-11T05:28:18.956Z,8.95
2019-05-11T05:29:18.944Z,8.95
2019-05-11T05:30:18.984Z,8.95
2019-05-11T05:31:18.921Z,8.96
2019-05-11T05:32:18.928Z,9.01
2019-05-11T05:33:18.905Z,8.90
2019-05-11T05:34:18.957Z,8.95
2019-05-11T05:35:18.882Z,8.96
2019-05-11T05:36:18.910Z,8.96
2019-05-11T05:37:18.857Z,8.96
2019-05-11T05:38:18.866Z,8.98
2019-05-11T05:39:18.834Z,8.95
2019-05-11T05:40:18.827Z,9.01
2019-05-11T05:41:18.814Z,8.98
2019-05-11T05:42:18.840Z,8.98
2019-05-11T05:43:27.836Z,8.95
2019-05-11T05:44:19.797Z,8.93
2019-05-11T05:45:18.770Z,8.93
2019-05-11T05:46:18.777Z,8.96
2019-05-11T05:47:18.745Z,8.96
2019-05-11T05:48:18.779Z,8.93
2019-05-11T05:49:18.732Z,8.99
2019-05-11T05:50:18.733Z,8.98
2019-05-11T05:51:18.705Z,9.01
2019-05-11T05:52:18.696Z,8.92
2019-05-11T05:53:18.684Z,8.98
2019-05-11T05:54:18.700Z,8.98
2019-05-11T05:55:18.659Z,8.99
2019-05-11T05:56:18.653Z,8.96
2019-05-11T05:57:18.651Z,8.98
2019-05-11T05:58:18.629Z,8.90
2019-05-11T05:59:18.619Z,8.95
2019-05-11T06:00:18.670Z,8.98
2019-05-11T06:01:18.595Z,8.98
2019-05-11T06:02:18.584Z,8.96
2019-05-11T06:03:18.575Z,9.03
2019-05-11T06:04:18.570Z,9.01
2019-05-11T06:05:18.554Z,9.01
2019-05-11T06:06:18.595Z,9.01
2019-05-11T06:07:18.528Z,8.90
2019-05-11T06:08:18.530Z,8.98
2019-05-11T06:09:18.514Z,9.01
2019-05-11T06:10:18.500Z,8.99
2019-05-11T06:11:18.517Z,8.96
2019-05-11T06:12:18.539Z,8.93
2019-05-11T06:13:18.477Z,8.98
2019-05-11T06:14:18.481Z,9.01
2019-05-11T06:15:18.439Z,9.12
2019-05-11T06:16:18.443Z,9.04
2019-05-11T06:17:18.422Z,9.15
2019-05-11T06:18:18.441Z,9.04
2019-05-11T06:19:18.414Z,9.09
2019-05-11T06:20:18.405Z,9.06
2019-05-11T06:21:18.379Z,9.18
2019-05-11T06:22:18.365Z,9.14
2019-05-11T06:23:18.353Z,9.16
2019-05-11T06:24:18.398Z,9.09
2019-05-11T06:25:18.357Z,9.12
2019-05-11T06:26:18.351Z,9.15
2019-05-11T06:27:18.316Z,9.14
2019-05-11T06:28:18.300Z,9.09
2019-05-11T06:29:21.501Z,9.11
2019-05-11T06:30:18.317Z,9.12
2019-05-11T06:31:18.263Z,9.14
2019-05-11T06:32:18.271Z,9.12
2019-05-11T06:33:18.252Z,9.19
2019-05-11T06:34:18.232Z,9.14
2019-05-11T06:35:18.229Z,9.19
2019-05-11T06:36:18.261Z,9.19
2019-05-11T06:37:18.198Z,9.16
2019-05-11T06:38:18.201Z,9.19
2019-05-11T06:39:18.176Z,9.12
2019-05-11T06:40:18.165Z,9.11
2019-05-11T06:41:18.162Z,9.15
2019-05-11T06:42:18.193Z,9.14
2019-05-11T06:43:18.175Z,9.18
2019-05-11T06:44:18.168Z,9.15
2019-05-11T06:45:18.136Z,9.18
2019-05-11T06:46:18.117Z,9.09
2019-05-11T06:47:18.090Z,9.12
2019-05-11T06:48:18.127Z,9.08
2019-05-11T06:49:18.094Z,9.14
2019-05-11T06:50:18.077Z,9.09
2019-05-11T06:51:18.066Z,9.14
2019-05-11T06:52:18.044Z,9.15
2019-05-11T06:53:18.060Z,9.12
2019-05-11T06:54:18.081Z,9.08
2019-05-11T06:55:18.009Z,9.06
2019-05-11T06:56:18.016Z,9.11
2019-05-11T06:57:18.027Z,9.12
2019-05-11T06:58:18.038Z,9.14
2019-05-11T06:59:18.056Z,9.04
2019-05-11T07:00:18.054Z,9.04
2019-05-11T07:01:17.945Z,9.15
2019-05-11T07:02:17.938Z,9.14
2019-05-11T07:03:17.929Z,9.09
2019-05-11T07:04:17.904Z,9.15
2019-05-11T07:05:17.892Z,9.06
2019-05-11T07:06:18.093Z,9.11
2019-05-11T07:07:17.876Z,9.22
2019-05-11T07:08:17.859Z,9.12
2019-05-11T07:09:17.852Z,9.09
2019-05-11T07:10:17.836Z,9.09
2019-05-11T07:11:17.826Z,9.16
2019-05-11T07:12:17.969Z,9.19
2019-05-11T07:13:17.815Z,9.15
2019-05-11T07:14:20.971Z,9.15
2019-05-11T07:15:17.790Z,9.18
2019-05-11T07:16:17.773Z,9.23
2019-05-11T07:17:17.821Z,9.29
2019-05-11T07:18:17.872Z,9.27
2019-05-11T07:19:17.737Z,9.29
2019-05-11T07:20:17.737Z,9.29
2019-05-11T07:21:17.748Z,9.33
2019-05-11T07:22:17.722Z,9.34
2019-05-11T07:23:17.702Z,9.45
2019-05-11T07:24:17.724Z,9.40
2019-05-11T07:25:17.702Z,9.45
2019-05-11T07:26:17.672Z,9.37
2019-05-11T07:27:17.664Z,9.45
2019-05-11T07:28:17.642Z,9.42
2019-05-11T07:29:17.658Z,9.42
2019-05-11T07:30:17.669Z,9.40
2019-05-11T07:31:17.611Z,9.50
2019-05-11T07:32:25.003Z,9.51
2019-05-11T07:33:18.588Z,9.63
2019-05-11T07:34:18.498Z,9.57
2019-05-11T07:35:18.766Z,9.66
2019-05-11T07:36:17.865Z,9.65
2019-05-11T07:37:18.546Z,9.66
2019-05-11T07:38:18.349Z,9.77
2019-05-11T07:39:18.640Z,9.85
2019-05-11T07:40:18.821Z,9.94
2019-05-11T07:41:17.679Z,9.94
2019-05-11T07:42:18.158Z,9.93
2019-05-11T07:43:18.794Z,10.05
2019-05-11T07:44:19.123Z,9.99
2019-05-11T07:45:18.487Z,9.87
2019-05-11T07:46:18.244Z,9.88
2019-05-11T07:47:18.679Z,9.99
2019-05-11T07:48:18.630Z,9.94
2019-05-11T07:49:17.994Z,9.98
2019-05-11T07:50:18.193Z,9.87
2019-05-11T07:51:18.257Z,9.87
2019-05-11T07:52:18.130Z,9.80
2019-05-11T07:53:18.655Z,9.78
2019-05-11T07:54:18.710Z,9.80
2019-05-11T07:55:18.987Z,9.81
2019-05-11T07:56:18.783Z,9.77
2019-05-11T07:57:18.667Z,9.73
2019-05-11T07:58:20.245Z,9.81
2019-05-11T07:59:18.345Z,9.80
2019-05-11T08:00:18.608Z,9.78
2019-05-11T08:01:18.925Z,9.87
2019-05-11T08:02:17.839Z,9.83
2019-05-11T08:03:18.127Z,9.90
2019-05-11T08:04:18.385Z,9.88
2019-05-11T08:05:17.976Z,9.91
2019-05-11T08:06:18.342Z,9.99
2019-05-11T08:07:18.114Z,9.98
2019-05-11T08:08:18.114Z,9.90
2019-05-11T08:09:18.641Z,9.87
2019-05-11T08:10:18.549Z,9.85
2019-05-11T08:11:18.285Z,9.84
2019-05-11T08:12:19.151Z,9.78
2019-05-11T08:13:17.826Z,9.81
2019-05-11T08:14:18.255Z,9.78
2019-05-11T08:15:18.378Z,9.72
2019-05-11T08:16:18.504Z,9.73
2019-05-11T08:17:18.693Z,9.73
2019-05-11T08:18:18.903Z,9.70
2019-05-11T08:19:18.510Z,9.63
2019-05-11T08:20:18.638Z,9.65
2019-05-11T08:21:17.826Z,9.57
2019-05-11T08:22:20.485Z,9.66
2019-05-11T08:23:18.223Z,9.65
2019-05-11T08:24:18.029Z,9.55
2019-05-11T08:25:18.255Z,9.63
2019-05-11T08:26:19.068Z,9.66
2019-05-11T08:27:18.698Z,9.66
2019-05-11T08:28:18.346Z,9.63
2019-05-11T08:29:18.589Z,9.66
2019-05-11T08:30:18.767Z,9.70
2019-05-11T08:31:18.696Z,9.65
2019-05-11T08:32:18.329Z,9.60
2019-05-11T08:33:18.142Z,9.63
2019-05-11T08:34:18.054Z,9.70
2019-05-11T08:35:17.929Z,9.66
2019-05-11T08:36:18.339Z,9.66
2019-05-11T08:37:18.852Z,9.66
2019-05-11T08:38:18.086Z,9.77
2019-05-11T08:39:18.238Z,9.77
2019-05-11T08:40:18.306Z,9.88
2019-05-11T08:41:18.502Z,9.88
2019-05-11T08:42:17.880Z,9.91
2019-05-11T08:43:18.005Z,9.88
2019-05-11T08:44:18.198Z,9.85
2019-05-11T08:45:23.256Z,9.87
2019-05-11T08:46:18.616Z,9.80
2019-05-11T08:47:17.781Z,9.83
2019-05-11T08:48:18.680Z,9.87
2019-05-11T08:49:19.048Z,9.88
2019-05-11T08:50:18.737Z,9.91
2019-05-11T08:51:18.732Z,10.02
2019-05-11T08:52:18.632Z,9.94
2019-05-11T08:53:17.863Z,9.98
2019-05-11T08:54:18.366Z,10.06
2019-05-11T08:55:18.757Z,10.09
2019-05-11T08:56:18.393Z,10.06
2019-05-11T08:57:18.014Z,10.20
2019-05-11T08:58:19.402Z,10.20
2019-05-11T08:59:18.701Z,10.35
2019-05-11T09:00:17.953Z,10.26
2019-05-11T09:01:18.420Z,10.35
2019-05-11T09:02:18.620Z,10.43
2019-05-11T09:03:17.902Z,10.60
2019-05-11T09:04:18.260Z,10.48
2019-05-11T09:05:18.758Z,10.70
2019-05-11T09:06:17.854Z,10.65
2019-05-11T09:07:18.447Z,10.61
2019-05-11T09:08:18.601Z,10.65
2019-05-11T09:09:18.100Z,10.67
2019-05-11T09:10:18.621Z,10.65
2019-05-11T09:11:18.830Z,10.72
2019-05-11T09:12:18.350Z,10.65
2019-05-11T09:13:18.540Z,10.67
2019-05-11T09:14:18.672Z,10.73
2019-05-11T09:15:31.611Z,10.64
2019-05-11T09:16:19.023Z,10.67
2019-05-11T09:17:18.235Z,10.72
2019-05-11T09:18:18.560Z,10.76
2019-05-11T09:19:17.840Z,10.65
2019-05-11T09:20:18.014Z,10.65
2019-05-11T09:21:18.794Z,10.64
2019-05-11T09:22:18.240Z,10.79
2019-05-11T09:23:30.870Z,10.78
2019-05-11T09:24:18.938Z,10.79
2019-05-11T09:25:18.278Z,10.76
2019-05-11T09:26:18.115Z,10.80
2019-05-11T09:27:18.423Z,10.91
2019-05-11T09:28:18.116Z,10.86
2019-05-11T09:29:18.038Z,10.85
2019-05-11T09:30:18.337Z,10.86
2019-05-11T09:31:18.620Z,10.90
2019-05-11T09:32:17.888Z,10.82
2019-05-11T09:33:20.462Z,10.90
2019-05-11T09:34:18.072Z,10.85
2019-05-11T09:35:18.670Z,10.90
2019-05-11T09:36:18.023Z,10.79
2019-05-11T09:37:18.259Z,10.70
2019-05-11T09:38:18.417Z,10.70
2019-05-11T09:39:17.719Z,10.68
2019-05-11T09:40:18.208Z,10.67
2019-05-11T09:41:18.134Z,10.57
2019-05-11T09:42:17.922Z,10.61
2019-05-11T09:43:17.856Z,10.60
2019-05-11T09:44:18.242Z,10.68
2019-05-11T09:45:18.424Z,10.70
2019-05-11T09:46:18.548Z,10.61
2019-05-11T09:47:18.767Z,10.62
2019-05-11T09:48:18.021Z,10.64
2019-05-11T09:49:18.362Z,10.61
2019-05-11T09:50:17.844Z,10.55
2019-05-11T09:51:18.208Z,10.57
2019-05-11T09:52:18.210Z,10.49
2019-05-11T09:53:17.716Z,10.52
2019-05-11T09:54:18.195Z,10.58
2019-05-11T09:55:16.030Z,10.54
2019-05-11T09:56:18.234Z,10.41
2019-05-11T09:57:18.365Z,10.43
2019-05-11T09:58:16.097Z,10.52
2019-05-11T09:59:17.898Z,10.41
2019-05-11T10:00:17.919Z,10.42
2019-05-11T10:01:18.048Z,10.34
2019-05-11T10:02:18.624Z,10.38
2019-05-11T10:03:18.647Z,10.45
2019-05-11T10:04:17.941Z,10.41
2019-05-11T10:05:15.930Z,10.42
2019-05-11T10:06:15.926Z,10.46
2019-05-11T10:07:17.953Z,10.49
2019-05-11T10:08:18.147Z,10.43
2019-05-11T10:09:18.460Z,10.49
2019-05-11T10:10:18.408Z,10.45
2019-05-11T10:11:15.857Z,10.45
2019-05-11T10:12:17.967Z,10.54
2019-05-11T10:13:15.861Z,10.52
2019-05-11T10:14:15.887Z,10.48
2019-05-11T10:15:15.846Z,10.52
2019-05-11T10:16:17.894Z,10.52
2019-05-11T10:17:18.080Z,10.54
2019-05-11T10:18:15.932Z,10.64
2019-05-11T10:19:17.899Z,10.54
2019-05-11T10:20:17.522Z,10.68
2019-05-11T10:21:18.542Z,10.73
2019-05-11T10:22:15.804Z,10.75
2019-05-11T10:23:18.007Z,10.58
2019-05-11T10:24:17.796Z,10.65
2019-05-11T10:25:17.982Z,10.67
2019-05-11T10:26:15.697Z,10.70
2019-05-11T10:27:15.957Z,10.62
2019-05-11T10:28:17.726Z,10.60
2019-05-11T10:29:18.085Z,10.62
2019-05-11T10:30:15.654Z,10.62
2019-05-11T10:31:17.799Z,10.65
2019-05-11T10:32:15.648Z,10.72
2019-05-11T10:33:15.972Z,10.75
2019-05-11T10:34:17.788Z,10.60
2019-05-11T10:35:15.636Z,10.70
2019-05-11T10:36:15.646Z,10.65
2019-05-11T10:37:17.611Z,10.79
2019-05-11T10:38:17.543Z,10.73
2019-05-11T10:39:15.588Z,10.70
2019-05-11T10:40:15.835Z,10.75
2019-05-11T10:41:17.830Z,10.80
2019-05-11T10:42:17.859Z,10.86
2019-05-11T10:43:15.688Z,10.79
2019-05-11T10:44:15.493Z,10.76
2019-05-11T10:45:17.830Z,10.73
2019-05-11T10:46:20.255Z,10.76
2019-05-11T10:47:18.472Z,10.73
2019-05-11T10:48:17.553Z,10.80
2019-05-11T10:49:15.444Z,10.80
2019-05-11T10:50:15.469Z,10.78
2019-05-11T10:51:15.482Z,10.83
2019-05-11T10:52:17.841Z,10.75
2019-05-11T10:53:15.402Z,10.78
2019-05-11T10:54:15.384Z,10.76
2019-05-11T10:55:15.375Z,10.78
2019-05-11T10:56:17.673Z,10.80
2019-05-11T10:57:15.422Z,10.75
2019-05-11T10:58:15.354Z,10.78
2019-05-11T10:59:15.718Z,10.75
2019-05-11T11:00:17.531Z,10.79
2019-05-11T11:01:15.308Z,10.80
2019-05-11T11:02:15.305Z,10.80
2019-05-11T11:03:17.744Z,10.80
2019-05-11T11:04:15.290Z,10.79
2019-05-11T11:05:15.279Z,10.75
2019-05-11T11:06:15.267Z,10.82
2019-05-11T11:07:17.205Z,10.78
2019-05-11T11:08:15.243Z,10.78
2019-05-11T11:09:17.586Z,10.68
2019-05-11T11:10:15.229Z,10.64
2019-05-11T11:11:15.202Z,10.60
2019-05-11T11:12:15.315Z,10.70
2019-05-11T11:13:15.190Z,10.65
2019-05-11T11:14:15.173Z,10.72
2019-05-11T11:15:15.207Z,10.65
2019-05-11T11:16:15.150Z,10.64
2019-05-11T11:17:15.141Z,10.64
2019-05-11T11:18:15.125Z,10.75
2019-05-11T11:19:15.154Z,10.93
2019-05-11T11:20:15.104Z,11.03
2019-05-11T11:21:15.124Z,11.00
2019-05-11T11:22:35.022Z,11.01
2019-05-11T11:23:17.705Z,11.09
2019-05-11T11:24:15.064Z,11.19
2019-05-11T11:25:15.053Z,11.22
2019-05-11T11:26:15.066Z,11.41
2019-05-11T11:27:15.210Z,11.37
2019-05-11T11:28:15.063Z,11.41
2019-05-11T11:29:15.005Z,11.49
2019-05-11T11:30:15.080Z,11.58
2019-05-11T11:31:15.208Z,11.58
2019-05-11T11:32:15.023Z,11.67
2019-05-11T11:33:15.008Z,11.77
2019-05-11T11:34:14.956Z,11.93
2019-05-11T11:35:15.001Z,11.95
2019-05-11T11:36:14.930Z,12.13
2019-05-11T11:37:14.928Z,12.18
2019-05-11T11:38:15.002Z,12.26
2019-05-11T11:39:14.947Z,12.29
2019-05-11T11:40:14.921Z,12.38
2019-05-11T11:41:14.870Z,12.51
2019-05-11T11:42:14.914Z,12.58
2019-05-11T11:43:14.846Z,12.55
2019-05-11T11:44:14.887Z,12.58
2019-05-11T11:45:14.962Z,12.59
2019-05-11T11:46:14.817Z,12.61
2019-05-11T11:47:14.806Z,12.72
2019-05-11T11:48:16.042Z,12.84
2019-05-11T11:49:14.813Z,12.90
2019-05-11T11:50:14.777Z,12.96
2019-05-11T11:51:14.832Z,13.04
2019-05-11T11:52:14.762Z,13.08
2019-05-11T11:53:14.859Z,13.20
2019-05-11T11:54:14.730Z,13.35
2019-05-11T11:55:14.728Z,13.49
2019-05-11T11:56:14.749Z,13.58
2019-05-11T11:57:14.739Z,13.64
2019-05-11T11:58:14.681Z,13.76
2019-05-11T11:59:14.682Z,13.83
2019-05-11T12:00:18.128Z,13.78
2019-05-11T12:01:14.659Z,14.09
2019-05-11T12:02:14.667Z,14.18
2019-05-11T12:03:14.703Z,14.31
2019-05-11T12:04:14.623Z,14.40
2019-05-11T12:05:14.625Z,14.41
2019-05-11T12:06:14.601Z,14.44
2019-05-11T12:07:14.612Z,14.49
2019-05-11T12:08:14.721Z,14.49
2019-05-11T12:09:14.667Z,14.55
2019-05-11T12:10:14.573Z,14.48
2019-05-11T12:11:14.557Z,14.40
2019-05-11T12:12:14.544Z,14.40
2019-05-11T12:13:14.614Z,14.34
2019-05-11T12:14:14.689Z,14.44
2019-05-11T12:15:14.545Z,14.45
2019-05-11T12:16:14.489Z,14.44
2019-05-11T12:17:14.648Z,14.44
2019-05-11T12:18:14.476Z,14.53
2019-05-11T12:19:14.465Z,14.66
2019-05-11T12:20:14.504Z,14.67
2019-05-11T12:21:14.488Z,14.48
2019-05-11T12:22:14.450Z,14.45
2019-05-11T12:23:14.513Z,14.37
2019-05-11T12:24:14.420Z,14.46
2019-05-11T12:25:14.414Z,14.41
2019-05-11T12:26:14.412Z,14.36
2019-05-11T12:27:14.572Z,14.40
2019-05-11T12:28:14.529Z,14.41
2019-05-11T12:29:14.428Z,14.41
2019-05-11T12:30:14.335Z,14.40
2019-05-11T12:31:14.425Z,14.37
2019-05-11T12:32:14.489Z,14.22
2019-05-11T12:33:14.483Z,14.19
2019-05-11T12:34:14.374Z,14.04
2019-05-11T12:35:14.343Z,13.93
2019-05-11T12:36:18.478Z,13.83
2019-05-11T12:37:14.384Z,13.79
2019-05-11T12:38:14.343Z,13.80
2019-05-11T12:39:14.413Z,13.93
2019-05-11T12:40:14.527Z,13.96
2019-05-11T12:41:14.516Z,14.19
2019-05-11T12:42:14.292Z,14.08
2019-05-11T12:43:14.375Z,14.03
2019-05-11T12:44:14.265Z,14.03
2019-05-11T12:45:14.235Z,14.15
2019-05-11T12:46:14.186Z,14.11
2019-05-11T12:47:23.993Z,14.11
2019-05-11T12:48:15.242Z,14.09
2019-05-11T12:49:14.186Z,13.97
2019-05-11T12:50:14.148Z,13.96
2019-05-11T12:51:14.178Z,13.82
2019-05-11T12:52:14.283Z,13.75
2019-05-11T12:53:14.171Z,13.72
2019-05-11T12:54:14.068Z,13.78
2019-05-11T12:55:14.060Z,13.72
2019-05-11T12:56:14.054Z,13.63
2019-05-11T12:57:14.184Z,13.61
2019-05-11T12:58:14.024Z,13.49
2019-05-11T12:59:14.019Z,13.51
2019-05-11T13:00:14.003Z,13.45
2019-05-11T13:01:14.009Z,13.26
2019-05-11T13:02:14.001Z,13.05
2019-05-11T13:03:14.169Z,13.05
2019-05-11T13:04:13.962Z,12.91
2019-05-11T13:05:13.952Z,13.05
2019-05-11T13:06:13.937Z,12.98
2019-05-11T13:07:16.606Z,12.95